Time;durP1;ratioP1;P1;durP2;ratioP2;P2;SDS_P1;SDS_P2;PMS_P1;PMS_P2;Temp;Humidity;BMP_temperature;BMP_pressure;BME280_temperature;BME280_humidity;BME280_pressure;Samples;Min_cycle;Max_cycle;Signal;HPM_P1;HPM_P2
2020/12/22 00:00:10;;;;;;;;;36.67;35.00;;;;;1.67;69.38;102907.38;4421201;32;8896;-75
2020/12/22 00:03:05;;;;;;;;;33.33;31.67;;;;;1.50;69.79;102908.94;4433324;32;8907;-75
2020/12/22 00:06:04;;;;;;;;;42.33;38.00;;;;;1.68;69.18;102894.56;4429354;32;8898;-76
2020/12/22 00:08:59;;;;;;;;;49.33;42.00;;;;;1.77;68.82;102901.47;4433226;32;8898;-75
2020/12/22 00:11:55;;;;;;;;;43.00;39.33;;;;;2.01;68.23;102904.47;4402679;32;8907;-75
2020/12/22 00:14:51;;;;;;;;;30.33;26.67;;;;;1.71;68.75;102899.59;4402263;32;8895;-75
2020/12/22 00:17:47;;;;;;;;;45.33;44.00;;;;;1.64;68.99;102907.00;4402652;32;9111;-75
2020/12/22 00:20:44;;;;;;;;;66.00;48.33;;;;;1.57;69.17;102906.19;4402825;32;8937;-75
2020/12/22 00:23:39;;;;;;;;;52.00;48.00;;;;;1.72;68.65;102901.28;4414106;32;9584;-74
2020/12/22 00:26:35;;;;;;;;;29.00;28.67;;;;;2.02;67.58;102908.88;4402427;32;8911;-75
2020/12/22 00:29:30;;;;;;;;;16.67;15.33;;;;;1.89;67.77;102898.88;4423946;32;8949;-75
2020/12/22 00:32:26;;;;;;;;;28.00;22.67;;;;;1.44;68.67;102898.03;4407160;32;8916;-75
2020/12/22 00:35:22;;;;;;;;;15.33;13.33;;;;;1.45;68.70;102908.72;4407274;32;8877;-76
2020/12/22 00:38:17;;;;;;;;;17.33;14.67;;;;;1.67;68.34;102907.38;4417696;32;8944;-75
2020/12/22 00:40:44;;;;;;;;;19.00;19.00;;;;;1.63;68.19;102906.16;4419172;32;8907;-76
2020/12/22 00:43:42;;;;;;;;;14.00;13.00;;;;;1.64;68.01;102907.81;4417943;32;8905;-75
2020/12/22 00:46:15;;;;;;;;;18.67;17.33;;;;;1.67;67.88;102907.38;4420077;32;8896;-75
2020/12/22 00:48:44;;;;;;;;;18.67;18.00;;;;;1.43;68.63;102905.38;4405318;32;8961;-75
2020/12/22 00:51:40;;;;;;;;;24.67;24.67;;;;;1.56;68.38;102904.50;4418348;32;8923;-75
2020/12/22 00:54:35;;;;;;;;;38.33;38.33;;;;;1.66;68.19;102907.59;4416189;32;8965;-75
2020/12/22 00:57:31;;;;;;;;;32.00;27.00;;;;;1.43;69.18;102919.03;4418097;32;9569;-75
2020/12/22 01:00:27;;;;;;;;;28.00;27.33;;;;;1.66;68.84;102907.59;4418823;32;8951;-75
2020/12/22 01:03:12;;;;;;;;;27.67;27.67;;;;;1.73;68.21;102905.69;4440940;32;8881;-76
2020/12/22 01:06:08;;;;;;;;;24.33;23.00;;;;;1.77;68.20;102896.00;4428472;32;8968;-76
2020/12/22 01:09:05;;;;;;;;;13.00;13.00;;;;;1.64;68.47;102904.25;4432888;32;8935;-76
2020/12/22 01:12:01;;;;;;;;;12.67;12.67;;;;;1.57;68.64;102895.28;4426301;32;8896;-76
2020/12/22 01:14:57;;;;;;;;;13.67;13.67;;;;;1.67;68.32;102899.19;4446589;32;8922;-77
2020/12/22 01:17:53;;;;;;;;;19.33;18.00;;;;;1.51;68.72;102902.41;4435196;32;8888;-75
2020/12/22 01:20:49;;;;;;;;;10.67;10.67;;;;;1.87;67.86;102892.81;4417858;32;8910;-76
2020/12/22 01:23:45;;;;;;;;;13.33;12.67;;;;;1.58;68.46;102892.31;4418016;32;8894;-75
2020/12/22 01:26:40;;;;;;;;;15.67;13.33;;;;;1.55;68.56;102898.22;4429272;32;8926;-76
2020/12/22 01:29:36;;;;;;;;;13.00;13.00;;;;;1.40;69.21;102894.94;4431771;32;9038;-76
2020/12/22 01:32:31;;;;;;;;;5.00;5.00;;;;;1.67;68.44;102903.81;4433225;32;8996;-76
2020/12/22 01:35:27;;;;;;;;;25.67;23.33;;;;;1.51;69.11;102893.41;4433103;32;8962;-75
2020/12/22 01:38:22;;;;;;;;;19.00;19.00;;;;;1.51;69.52;102894.25;4433214;32;8973;-75
2020/12/22 01:40:50;;;;;;;;;22.67;22.67;;;;;1.64;69.04;102893.34;4434514;32;8974;-76
2020/12/22 01:44:09;;;;;;;;;22.00;22.00;;;;;1.66;69.03;102891.22;4432831;32;8880;-75
2020/12/22 01:47:05;;;;;;;;;49.33;42.33;;;;;1.18;70.73;102888.91;4433118;32;8899;-76
2020/12/22 01:50:00;;;;;;;;;46.00;41.33;;;;;1.27;70.76;102886.78;4434591;32;8888;-76
2020/12/22 01:52:56;;;;;;;;;44.33;42.00;;;;;1.34;70.66;102884.88;4436441;32;8880;-76
2020/12/22 01:55:52;;;;;;;;;10.00;10.00;;;;;1.33;71.17;102880.47;4435986;32;8971;-76
2020/12/22 01:58:19;;;;;;;;;55.00;49.00;;;;;1.19;71.87;102881.56;4436013;32;8961;-76
2020/12/22 02:01:15;;;;;;;;;51.00;45.00;;;;;1.58;70.57;102869.66;4435353;32;8900;-75
2020/12/22 02:04:13;;;;;;;;;43.00;40.00;;;;;1.33;71.26;102875.88;4435962;32;8872;-76
2020/12/22 02:07:12;;;;;;;;;68.00;52.33;;;;;1.27;71.34;102873.16;4434311;32;8883;-76
2020/12/22 02:10:09;;;;;;;;;34.67;31.67;;;;;1.38;71.29;102870.59;4434837;32;8891;-76
2020/12/22 02:13:05;;;;;;;;;53.00;47.00;;;;;1.27;71.06;102874.00;4435559;32;8892;-75
2020/12/22 02:16:00;;;;;;;;;44.00;39.00;;;;;1.20;70.96;102870.44;4435069;32;9026;-75
2020/12/22 02:18:56;;;;;;;;;64.00;51.00;;;;;1.09;71.16;102863.78;4436203;32;8888;-76
2020/12/22 02:21:53;;;;;;;;;70.67;58.00;;;;;1.23;71.05;102869.19;4435621;32;8896;-76
2020/12/22 02:24:48;;;;;;;;;73.33;55.33;;;;;1.18;70.96;102861.66;4435859;32;8883;-77
2020/12/22 02:27:16;;;;;;;;;71.00;59.33;;;;;1.31;70.65;102869.78;4436861;32;8929;-76
2020/12/22 02:30:12;;;;;;;;;48.67;44.33;;;;;1.31;70.32;102867.06;4427295;32;8884;-75
2020/12/22 02:32:42;;;;;;;;;36.33;36.33;;;;;1.21;70.54;102855.75;4437106;32;9021;-75
2020/12/22 02:35:38;;;;;;;;;63.33;51.33;;;;;1.26;70.68;102852.41;4428225;32;9036;-75
2020/12/22 02:38:34;;;;;;;;;67.00;51.33;;;;;1.42;70.04;102859.25;4430884;32;8946;-75
2020/12/22 02:41:29;;;;;;;;;52.67;49.00;;;;;1.11;70.84;102856.22;4435666;32;8963;-75
2020/12/22 02:44:25;;;;;;;;;67.33;53.00;;;;;1.17;70.80;102870.91;4419317;32;8902;-75
2020/12/22 02:47:20;;;;;;;;;49.33;47.33;;;;;1.21;70.54;102861.22;4429486;32;8956;-75
2020/12/22 02:50:16;;;;;;;;;39.67;37.00;;;;;0.95;70.51;102866.75;4434091;32;8892;-75
2020/12/22 02:53:11;;;;;;;;;58.33;48.67;;;;;0.84;70.61;102873.69;4434149;32;8895;-75
2020/12/22 02:56:08;;;;;;;;;33.67;29.33;;;;;0.92;70.62;102864.44;4434359;32;8923;-75
2020/12/22 02:59:05;;;;;;;;;18.67;18.67;;;;;1.11;69.43;102875.31;4433524;32;8892;-75
2020/12/22 03:02:01;;;;;;;;;15.00;15.00;;;;;1.13;69.09;102872.38;4420712;32;8979;-76
2020/12/22 03:04:56;;;;;;;;;15.33;15.33;;;;;1.42;68.44;102870.16;4431005;32;8896;-76
2020/12/22 03:07:37;;;;;;;;;16.00;16.00;;;;;1.54;67.96;102868.44;4435211;32;8906;-76
2020/12/22 03:10:34;;;;;;;;;16.00;14.67;;;;;1.34;68.27;102863.91;4434300;32;8904;-76
2020/12/22 03:13:30;;;;;;;;;28.00;23.33;;;;;1.28;68.70;102861.19;4434071;32;8903;-75
2020/12/22 03:16:26;;;;;;;;;22.67;21.67;;;;;1.16;68.73;102861.03;4434647;32;8904;-76
2020/12/22 03:19:07;;;;;;;;;29.33;28.00;;;;;1.38;67.70;102861.56;4434838;32;9018;-75
2020/12/22 03:22:04;;;;;;;;;21.00;19.00;;;;;1.09;67.83;102858.34;4434305;32;8927;-75
2020/12/22 03:25:01;;;;;;;;;22.67;22.67;;;;;0.94;68.33;102871.38;4434635;32;8888;-76
2020/12/22 03:27:47;;;;;;;;;24.00;24.00;;;;;1.16;67.53;102858.31;4435022;32;8934;-74
2020/12/22 03:30:43;;;;;;;;;19.00;19.00;;;;;0.95;67.57;102856.69;4434250;32;8884;-75
2020/12/22 03:33:10;;;;;;;;;22.00;16.67;;;;;1.21;66.96;102861.22;4435291;32;8871;-75
2020/12/22 03:36:06;;;;;;;;;17.33;17.33;;;;;0.93;67.50;102863.44;4434671;32;8942;-75
2020/12/22 03:39:02;;;;;;;;;16.00;12.67;;;;;1.08;67.04;102870.28;4433234;32;8904;-75
2020/12/22 03:41:57;;;;;;;;;20.33;18.67;;;;;1.22;66.84;102860.16;4434462;32;8926;-75
2020/12/22 03:44:53;;;;;;;;;29.33;26.33;;;;;1.06;67.32;102866.09;4434176;32;8988;-75
2020/12/22 03:47:48;;;;;;;;;56.00;49.00;;;;;1.10;67.57;102861.91;4434140;32;8899;-75
2020/12/22 03:50:46;;;;;;;;;71.33;57.00;;;;;1.00;68.29;102850.63;4433865;32;8880;-74
2020/12/22 03:53:42;;;;;;;;;61.00;54.00;;;;;1.18;68.03;102847.19;4434194;32;8903;-75
2020/12/22 03:56:39;;;;;;;;;36.67;36.33;;;;;1.25;67.97;102850.75;4434191;32;8951;-75
2020/12/22 03:59:06;;;;;;;;;26.67;26.00;;;;;1.08;68.15;102851.22;4434816;32;8930;-74
2020/12/22 04:02:03;;;;;;;;;21.00;19.00;;;;;0.93;67.99;102853.37;4418969;32;8941;-75
2020/12/22 04:04:58;;;;;;;;;21.00;18.67;;;;;0.82;67.84;102848.56;4430658;32;8887;-75
2020/12/22 04:07:25;;;;;;;;;16.67;16.67;;;;;0.79;67.63;102852.56;4433596;32;8887;-74
2020/12/22 04:09:59;;;;;;;;;24.00;24.00;;;;;0.60;67.52;102847.13;4434252;32;8941;-74
2020/12/22 04:12:54;;;;;;;;;27.33;27.33;;;;;0.62;67.62;102858.66;4433666;32;8921;-75
2020/12/22 04:15:21;;;;;;;;;41.33;39.00;;;;;0.53;67.85;102855.28;4435749;32;9041;-76
2020/12/22 04:18:17;;;;;;;;;30.00;30.00;;;;;0.78;67.37;102864.50;4433967;32;9004;-75
2020/12/22 04:20:53;;;;;;;;;46.33;39.33;;;;;0.62;67.30;102866.84;4435746;32;8883;-75
2020/12/22 04:23:20;;;;;;;;;33.33;31.00;;;;;0.61;67.26;102873.31;4435230;32;8878;-75
2020/12/22 04:26:15;;;;;;;;;42.00;38.00;;;;;0.50;66.95;102874.78;4433268;32;8892;-75
2020/12/22 04:29:12;;;;;;;;;57.67;45.00;;;;;0.55;66.75;102880.47;4433417;32;9042;-76
2020/12/22 04:32:08;;;;;;;;;46.67;39.33;;;;;0.73;66.62;102880.63;4420485;32;8906;-76
2020/12/22 04:35:04;;;;;;;;;28.67;28.67;;;;;0.46;67.22;102885.28;4428266;32;8888;-75
2020/12/22 04:38:01;;;;;;;;;49.00;42.33;;;;;0.68;66.73;102882.31;4434366;32;9553;-75
2020/12/22 04:40:58;;;;;;;;;33.33;30.67;;;;;0.59;66.76;102886.31;4434192;32;8954;-75
2020/12/22 04:43:54;;;;;;;;;39.33;37.67;;;;;0.48;66.99;102891.34;4426200;32;8937;-74
2020/12/22 04:46:22;;;;;;;;;70.00;54.67;;;;;0.52;66.79;102894.47;4434316;32;8927;-74
2020/12/22 04:49:22;;;;;;;;;38.00;34.00;;;;;0.42;66.85;102903.06;4433289;32;8961;-74
2020/12/22 04:52:21;;;;;;;;;40.67;39.67;;;;;0.43;66.90;102901.19;4433235;32;8953;-74
2020/12/22 04:55:19;;;;;;;;;36.67;34.00;;;;;0.37;67.31;102896.56;4433394;32;8939;-74
2020/12/22 04:57:51;;;;;;;;;27.67;24.00;;;;;0.35;66.92;102898.66;4435164;32;8886;-75
2020/12/22 05:00:48;;;;;;;;;32.33;28.67;;;;;0.69;66.29;102895.75;4433589;32;8927;-75
2020/12/22 05:03:20;;;;;;;;;27.33;25.67;;;;;0.31;66.79;102895.53;4418518;32;8906;-75
2020/12/22 05:06:16;;;;;;;;;21.33;19.00;;;;;0.28;66.83;102907.66;4417849;32;8937;-75
2020/12/22 05:09:11;;;;;;;;;21.00;21.00;;;;;0.26;66.91;102912.47;4428352;32;8891;-74
2020/12/22 05:12:09;;;;;;;;;31.67;25.33;;;;;0.33;66.67;102915.22;4432903;32;9050;-75
2020/12/22 05:15:06;;;;;;;;;26.67;23.67;;;;;0.25;66.68;102912.69;4428070;32;8888;-76
2020/12/22 05:17:42;;;;;;;;;22.00;22.00;;;;;0.52;66.05;102914.37;4428012;32;8918;-76
2020/12/22 05:20:15;;;;;;;;;29.00;27.00;;;;;0.48;65.82;102913.12;4429650;32;8910;-75
2020/12/22 05:22:47;;;;;;;;;39.00;34.00;;;;;0.45;65.74;102918.97;4428869;32;8887;-75
2020/12/22 05:25:20;;;;;;;;;51.67;46.33;;;;;0.53;65.82;102912.47;4436441;32;8949;-76
2020/12/22 05:27:51;;;;;;;;;28.33;27.67;;;;;0.28;65.99;102915.81;4435726;32;8926;-76
2020/12/22 05:30:20;;;;;;;;;18.00;16.00;;;;;0.46;65.62;102917.09;4435781;32;8911;-76
2020/12/22 05:32:51;;;;;;;;;18.33;16.67;;;;;0.78;64.69;102918.97;4436392;32;8922;-76
2020/12/22 05:35:48;;;;;;;;;15.67;15.67;;;;;0.93;64.07;102916.03;4437332;32;9034;-75
2020/12/22 05:38:44;;;;;;;;;18.00;16.00;;;;;1.02;63.87;102914.75;4420664;32;8963;-75
2020/12/22 05:41:39;;;;;;;;;28.00;25.67;;;;;1.22;63.47;102909.22;4428329;32;8888;-78
2020/12/22 05:44:35;;;;;;;;;25.67;21.00;;;;;1.01;64.18;102917.69;4435405;32;8993;-78
2020/12/22 05:47:31;;;;;;;;;44.00;38.67;;;;;0.84;64.12;102911.81;4420484;32;8911;-77
2020/12/22 05:50:27;;;;;;;;;20.33;18.00;;;;;1.04;64.13;102914.53;4420654;32;9036;-76
2020/12/22 05:53:24;;;;;;;;;28.33;23.33;;;;;1.08;63.62;102913.91;4420860;32;8941;-78
2020/12/22 05:56:23;;;;;;;;;18.67;18.67;;;;;0.67;64.28;102911.44;4419288;32;8898;-77
2020/12/22 05:59:00;;;;;;;;;28.67;24.67;;;;;0.59;64.74;102899.91;4420290;32;8956;-77
2020/12/22 06:01:58;;;;;;;;;48.67;42.67;;;;;0.57;64.78;102900.13;4420672;32;9536;-78
2020/12/22 06:04:25;;;;;;;;;29.33;26.33;;;;;0.74;64.67;102901.37;4433189;32;8881;-77
2020/12/22 06:07:21;;;;;;;;;50.67;45.33;;;;;0.89;64.18;102909.31;4420366;32;8894;-78
2020/12/22 06:10:22;;;;;;;;;34.67;33.33;;;;;0.67;64.79;102905.16;4421819;32;8987;-78
2020/12/22 06:13:18;;;;;;;;;39.33;34.67;;;;;0.90;64.52;102904.69;4425313;32;9147;-78
2020/12/22 06:16:19;;;;;;;;;31.00;30.33;;;;;0.87;64.73;102916.88;4432006;32;9679;-79
2020/12/22 06:19:15;;;;;;;;;21.00;21.00;;;;;0.88;64.74;102920.44;4425877;32;8906;-80
2020/12/22 06:21:58;;;;;;;;;25.00;24.00;;;;;1.01;64.73;102912.25;4425867;32;8934;-79
2020/12/22 06:24:54;;;;;;;;;49.67;46.67;;;;;1.06;64.33;102905.06;4420594;32;9611;-79
2020/12/22 06:27:31;;;;;;;;;66.67;53.33;;;;;1.20;64.19;102910.50;4433461;32;8894;-79
2020/12/22 06:29:59;;;;;;;;;34.33;31.33;;;;;1.26;64.06;102915.09;4433769;32;8907;-79
2020/12/22 06:32:54;;;;;;;;;40.00;38.67;;;;;1.12;64.21;102923.31;4433738;32;8946;-79
2020/12/22 06:35:33;;;;;;;;;36.33;34.67;;;;;0.92;64.41;102921.66;4434414;32;8908;-78
2020/12/22 06:38:08;;;;;;;;;38.33;31.67;;;;;0.99;64.49;102925.22;4431317;32;8992;-78
2020/12/22 06:41:05;;;;;;;;;70.33;50.33;;;;;1.12;64.14;102915.13;4432582;32;8900;-78
2020/12/22 06:43:55;;;;;;;;;49.00;45.00;;;;;1.31;63.72;102928.94;4436060;32;8925;-78
2020/12/22 06:46:57;;;;;;;;;44.00;43.33;;;;;0.94;63.60;102931.31;4434704;32;8888;-78
2020/12/22 06:49:53;;;;;;;;;40.33;35.33;;;;;0.92;63.42;102924.41;4429457;32;8949;-78
2020/12/22 06:52:49;;;;;;;;;54.33;45.00;;;;;0.82;63.27;102917.50;4420065;32;8898;-78
2020/12/22 06:55:51;;;;;;;;;56.00;49.00;;;;;0.77;63.07;102922.75;4419061;32;8925;-79
2020/12/22 06:58:50;;;;;;;;;69.00;54.67;;;;;0.96;62.95;102918.31;4423701;32;8947;-79
2020/12/22 07:01:46;;;;;;;;;70.67;55.00;;;;;0.75;63.33;102915.81;4434751;32;8908;-77
2020/12/22 07:04:41;;;;;;;;;44.33;43.67;;;;;1.00;62.93;102913.31;4435200;32;8900;-77
2020/12/22 07:07:25;;;;;;;;;46.33;43.00;;;;;0.58;64.41;102909.16;4435894;32;8891;-77
2020/12/22 07:10:07;;;;;;;;;26.33;24.67;;;;;0.39;65.29;102902.66;4434594;32;8894;-77
2020/12/22 07:12:36;;;;;;;;;32.67;31.33;;;;;0.67;65.17;102897.81;4435679;32;8945;-77
2020/12/22 07:15:33;;;;;;;;;36.33;28.67;;;;;0.96;64.38;102891.06;4434619;32;9525;-77
2020/12/22 07:18:30;;;;;;;;;33.67;31.33;;;;;0.75;64.96;102894.87;4424207;32;8911;-78
2020/12/22 07:21:31;;;;;;;;;48.00;42.67;;;;;0.67;64.84;102894.25;4434678;32;8942;-78
2020/12/22 07:24:29;;;;;;;;;27.00;26.00;;;;;1.05;63.92;102900.69;4433979;32;8934;-77
2020/12/22 07:27:01;;;;;;;;;19.67;16.67;;;;;0.72;63.07;102908.94;4410953;32;8940;-76
2020/12/22 07:29:58;;;;;;;;;40.67;37.67;;;;;0.70;62.27;102899.31;4433372;32;8891;-76
2020/12/22 07:32:26;;;;;;;;;35.67;32.33;;;;;0.51;62.84;102895.53;4421790;32;8898;-77
2020/12/22 07:35:21;;;;;;;;;31.00;30.33;;;;;0.40;63.13;102901.63;4433546;32;8933;-77
2020/12/22 07:38:11;;;;;;;;;38.33;29.33;;;;;0.65;62.81;102897.19;4434543;32;8931;-77
2020/12/22 07:41:06;;;;;;;;;38.33;38.33;;;;;0.95;62.18;102904.91;4424768;32;8883;-76
2020/12/22 07:43:35;;;;;;;;;30.67;28.33;;;;;1.09;62.12;102909.28;4436170;32;8885;-76
2020/12/22 07:46:04;;;;;;;;;33.00;30.33;;;;;0.94;62.48;102905.97;4421265;32;8869;-77
2020/12/22 07:48:32;;;;;;;;;35.33;35.33;;;;;1.12;62.27;102901.50;4435382;32;8912;-78
2020/12/22 07:51:28;;;;;;;;;37.67;37.67;;;;;1.08;62.25;102897.56;4433547;32;8942;-77
2020/12/22 07:54:26;;;;;;;;;25.67;25.00;;;;;1.02;62.19;102905.75;4434316;32;9016;-77
2020/12/22 07:57:23;;;;;;;;;13.00;13.00;;;;;0.65;62.56;102902.66;4423586;32;9021;-76
2020/12/22 08:00:20;;;;;;;;;19.67;19.67;;;;;0.76;61.87;102901.16;4423212;32;8899;-77
2020/12/22 08:03:16;;;;;;;;;25.33;24.33;;;;;0.75;62.06;102903.03;4433306;32;8894;-77
2020/12/22 08:06:11;;;;;;;;;30.00;25.67;;;;;0.68;62.34;102902.22;4422974;32;8891;-77
2020/12/22 08:09:07;;;;;;;;;19.67;19.67;;;;;0.73;62.02;102905.16;4433265;32;8954;-78
2020/12/22 08:11:35;;;;;;;;;28.67;22.67;;;;;1.02;61.53;102892.13;4435999;32;8901;-78
2020/12/22 08:14:38;;;;;;;;;37.33;35.33;;;;;0.95;61.84;102886.69;4433386;32;8930;-76
2020/12/22 08:17:21;;;;;;;;;16.00;4.67;;;;;0.82;62.20;102884.81;4433825;32;8890;-77
2020/12/22 08:20:08;;;;;;;;;40.67;33.67;;;;;0.87;62.53;102886.91;4433937;32;8929;-76
2020/12/22 08:22:36;;;;;;;;;43.00;41.67;;;;;0.85;62.84;102874.56;4434524;32;8901;-77
2020/12/22 08:25:32;;;;;;;;;31.00;24.67;;;;;0.73;63.38;102871.63;4433203;32;9017;-76
2020/12/22 08:28:28;;;;;;;;;6.00;4.00;;;;;0.65;63.74;102861.78;4433295;32;9060;-76
2020/12/22 08:31:26;;;;;;;;;48.67;43.67;;;;;0.67;64.04;102865.13;4433819;32;8898;-78
2020/12/22 08:34:22;;;;;;;;;55.67;40.00;;;;;0.66;64.13;102847.13;4432951;32;8907;-77
2020/12/22 08:37:10;;;;;;;;;22.00;22.00;;;;;0.68;64.31;102833.28;4421251;32;8952;-77
2020/12/22 08:39:39;;;;;;;;;24.67;20.67;;;;;0.76;63.90;102836.63;4423017;32;8947;-77
2020/12/22 08:42:35;;;;;;;;;25.00;25.00;;;;;0.50;64.40;102829.34;4428410;32;9002;-76
2020/12/22 08:45:31;;;;;;;;;33.67;30.33;;;;;1.08;63.44;102837.59;4430158;32;8892;-76
2020/12/22 08:48:37;;;;;;;;;22.67;22.00;;;;;0.81;63.41;102834.09;4432520;32;8892;-76
2020/12/22 08:51:34;;;;;;;;;28.00;28.00;;;;;0.86;63.06;102830.75;4432265;32;8924;-78
2020/12/22 08:54:03;;;;;;;;;25.67;25.67;;;;;1.31;62.29;102826.19;4433686;32;8924;-77
2020/12/22 08:56:38;;;;;;;;;24.33;24.33;;;;;1.18;62.12;102823.50;4434154;32;9044;-78
2020/12/22 08:59:34;;;;;;;;;33.67;28.67;;;;;1.28;61.89;102821.12;4417229;32;8915;-78
2020/12/22 09:02:30;;;;;;;;;40.00;37.00;;;;;1.56;61.49;102819.97;4425475;32;8938;-78
2020/12/22 09:05:11;;;;;;;;;39.67;39.67;;;;;1.47;61.53;102813.09;4435771;32;8929;-78
2020/12/22 09:08:05;;;;;;;;;43.33;40.33;;;;;1.23;61.90;102814.69;4425261;32;8959;-78
2020/12/22 09:11:01;;;;;;;;;53.33;47.33;;;;;1.56;61.67;102814.50;4437498;32;8892;-78
2020/12/22 09:14:00;;;;;;;;;42.67;40.33;;;;;1.34;62.17;102819.44;4424808;32;8904;-78
2020/12/22 09:17:04;;;;;;;;;41.33;37.33;;;;;1.50;62.28;102818.09;4419531;32;9565;-78
2020/12/22 09:20:01;;;;;;;;;38.33;33.00;;;;;1.97;61.41;102803.09;4435527;32;9644;-78
2020/12/22 09:23:05;;;;;;;;;43.00;35.33;;;;;1.59;62.10;102803.97;4435889;32;9709;-78
2020/12/22 09:26:00;;;;;;;;;45.33;41.33;;;;;1.77;61.60;102805.97;4435129;32;8890;-78
2020/12/22 09:28:28;;;;;;;;;44.33;40.67;;;;;1.79;61.82;102795.66;4434027;32;8952;-78
2020/12/22 09:31:24;;;;;;;;;43.00;36.33;;;;;1.84;61.80;102792.25;4425987;32;8887;-78
2020/12/22 09:33:59;;;;;;;;;33.33;32.33;;;;;1.75;62.39;102785.41;4436339;32;8937;-78
2020/12/22 09:36:57;;;;;;;;;26.67;25.33;;;;;1.87;62.32;102789.09;4438244;32;8895;-78
2020/12/22 09:39:29;;;;;;;;;22.00;22.00;;;;;2.14;61.52;102779.63;4437914;32;9604;-78
2020/12/22 09:42:01;;;;;;;;;56.00;46.67;;;;;2.33;61.22;102779.69;4433467;32;8883;-79
2020/12/22 09:44:56;;;;;;;;;40.00;40.00;;;;;2.08;61.96;102775.09;4425951;32;9560;-78
2020/12/22 09:47:53;;;;;;;;;31.33;30.67;;;;;2.32;61.26;102762.47;4424505;32;8954;-78
2020/12/22 09:50:48;;;;;;;;;46.67;44.33;;;;;2.05;61.82;102766.47;4432385;32;8974;-78
2020/12/22 09:53:44;;;;;;;;;48.00;43.33;;;;;2.36;61.28;102763.66;4435083;32;8912;-78
2020/12/22 09:56:40;;;;;;;;;39.00;32.33;;;;;2.45;61.27;102775.13;4424044;32;9060;-78
2020/12/22 09:59:35;;;;;;;;;53.00;47.67;;;;;1.90;62.15;102764.91;4434499;32;8952;-79
2020/12/22 10:02:34;;;;;;;;;47.00;42.33;;;;;1.95;62.42;102761.53;4434570;32;8903;-77
2020/12/22 10:05:16;;;;;;;;;34.33;34.33;;;;;2.19;62.42;102759.84;4435311;32;8921;-78
2020/12/22 10:08:14;;;;;;;;;60.00;49.67;;;;;2.33;61.59;102738.72;4434802;32;8912;-78
2020/12/22 10:10:42;;;;;;;;;38.67;36.00;;;;;2.46;61.12;102744.87;4435028;32;8886;-77
2020/12/22 10:13:10;;;;;;;;;47.67;39.33;;;;;2.55;60.45;102750.06;4427309;32;8949;-78
2020/12/22 10:15:38;;;;;;;;;37.67;34.67;;;;;2.60;60.72;102751.00;4435953;32;8871;-78
2020/12/22 10:18:09;;;;;;;;;48.33;45.67;;;;;2.08;61.42;102752.41;4434742;32;8926;-77
2020/12/22 10:20:39;;;;;;;;;42.00;39.00;;;;;2.38;61.11;102752.53;4435296;32;8978;-78
2020/12/22 10:23:10;;;;;;;;;44.67;40.33;;;;;2.34;61.14;102743.12;4434091;32;9584;-78
2020/12/22 10:26:12;;;;;;;;;28.33;27.00;;;;;2.14;61.35;102754.22;4424223;32;8887;-78
2020/12/22 10:29:08;;;;;;;;;42.33;38.00;;;;;1.89;61.81;102749.59;4434909;32;8946;-77
2020/12/22 10:31:35;;;;;;;;;36.67;31.67;;;;;1.93;61.80;102736.38;4425286;32;8957;-78
2020/12/22 10:34:30;;;;;;;;;48.00;44.33;;;;;2.11;61.67;102732.84;4433483;32;8940;-78
2020/12/22 10:37:26;;;;;;;;;43.67;38.33;;;;;1.97;61.99;102737.59;4435086;32;8895;-79
2020/12/22 10:40:21;;;;;;;;;42.00;41.00;;;;;2.30;61.59;102734.56;4434228;32;8954;-75
2020/12/22 10:43:17;;;;;;;;;71.00;54.67;;;;;2.41;61.18;102725.59;4435077;32;9004;-78
2020/12/22 10:46:00;;;;;;;;;39.67;37.67;;;;;2.43;61.33;102728.94;4435420;32;9560;-78
2020/12/22 10:48:55;;;;;;;;;43.33;37.00;;;;;2.09;61.87;102724.06;4434639;32;8999;-78
2020/12/22 10:51:53;;;;;;;;;44.67;41.00;;;;;2.21;61.54;102724.97;4433441;32;8904;-76
2020/12/22 10:54:48;;;;;;;;;54.33;44.67;;;;;2.27;61.50;102731.44;4425449;32;8945;-76
2020/12/22 10:57:44;;;;;;;;;52.67;46.33;;;;;2.61;60.91;102728.13;4420201;32;8924;-76
2020/12/22 11:00:40;;;;;;;;;47.33;41.67;;;;;2.65;60.50;102723.84;4437343;32;8917;-75
2020/12/22 11:03:21;;;;;;;;;50.67;44.33;;;;;2.82;59.96;102715.88;4423700;32;8888;-75
2020/12/22 11:09:08;;;;;;;;;35.00;33.67;;;;;2.51;60.58;102719.59;4428817;32;8930;-74
2020/12/22 11:11:52;;;;;;;;;22.67;19.67;;;;;2.53;60.16;102714.78;4434972;32;8898;-75
2020/12/22 11:14:47;;;;;;;;;45.33;44.00;;;;;2.57;60.11;102704.22;4418428;32;8936;-76
2020/12/22 11:17:44;;;;;;;;;44.00;42.00;;;;;2.72;59.72;102707.38;4418194;32;9049;-76
2020/12/22 11:20:39;;;;;;;;;36.67;34.33;;;;;2.58;60.27;102714.06;4417436;32;8891;-77
2020/12/22 11:23:35;;;;;;;;;17.00;17.00;;;;;2.18;60.86;102717.22;4417891;32;9033;-76
2020/12/22 11:26:25;;;;;;;;;32.67;32.67;;;;;2.00;61.42;102712.59;4418404;32;8905;-75
2020/12/22 11:29:21;;;;;;;;;40.00;39.00;;;;;2.53;60.62;102713.91;4429758;32;8899;-75
2020/12/22 11:32:17;;;;;;;;;37.67;37.67;;;;;2.73;60.36;102714.50;4433326;32;8900;-75
2020/12/22 11:35:14;;;;;;;;;40.00;38.33;;;;;2.21;61.10;102719.50;4427967;32;9052;-74
2020/12/22 11:38:11;;;;;;;;;42.00;35.00;;;;;2.04;61.68;102716.53;4432419;32;8934;-74
2020/12/22 11:41:07;;;;;;;;;41.33;32.00;;;;;1.93;61.62;102720.00;4415613;32;8902;-75
2020/12/22 11:44:02;;;;;;;;;38.33;35.67;;;;;1.92;61.92;102727.34;4424778;32;8934;-75
2020/12/22 11:46:58;;;;;;;;;34.00;31.67;;;;;1.93;61.85;102723.56;4433414;32;8947;-75
2020/12/22 11:49:55;;;;;;;;;34.33;34.33;;;;;1.62;62.65;102723.62;4431657;32;8997;-77
2020/12/22 11:52:51;;;;;;;;;38.67;32.67;;;;;1.78;62.42;102727.69;4432475;32;8958;-76
2020/12/22 11:55:47;;;;;;;;;38.67;38.67;;;;;1.70;62.75;102715.16;4434054;32;8928;-75
2020/12/22 11:58:44;;;;;;;;;45.00;41.67;;;;;1.61;62.99;102714.59;4433493;32;8920;-74
2020/12/22 12:01:35;;;;;;;;;33.67;30.67;;;;;1.53;62.96;102712.13;4434987;32;8932;-75
2020/12/22 12:04:32;;;;;;;;;31.00;30.00;;;;;1.63;62.67;102709.75;4431213;32;8923;-74
2020/12/22 12:07:04;;;;;;;;;37.33;36.00;;;;;1.54;62.51;102713.81;4426286;32;8886;-74
2020/12/22 12:09:33;;;;;;;;;43.33;40.33;;;;;1.46;62.98;102708.63;4434060;32;8925;-75
2020/12/22 12:12:29;;;;;;;;;43.00;36.67;;;;;1.36;63.51;102714.53;4432684;32;8921;-75
2020/12/22 12:15:25;;;;;;;;;36.67;27.67;;;;;1.57;63.00;102715.25;4428984;32;8903;-75
2020/12/22 12:18:21;;;;;;;;;37.00;31.33;;;;;1.47;62.67;102726.66;4433412;32;8984;-75
2020/12/22 12:21:17;;;;;;;;;32.33;31.00;;;;;1.63;61.85;102723.38;4432827;32;8926;-76
2020/12/22 12:23:44;;;;;;;;;30.67;26.33;;;;;1.60;61.99;102715.63;4434388;32;8895;-76
2020/12/22 12:26:15;;;;;;;;;37.67;37.00;;;;;1.98;61.00;102722.88;4432779;32;8989;-76
2020/12/22 12:28:46;;;;;;;;;40.33;38.33;;;;;1.91;60.89;102719.38;4423977;32;8939;-76
2020/12/22 12:31:41;;;;;;;;;35.33;34.33;;;;;1.90;60.37;102724.00;4422799;32;9030;-75
2020/12/22 12:34:23;;;;;;;;;49.67;43.33;;;;;1.68;60.90;102725.44;4432865;32;9635;-75
2020/12/22 12:37:19;;;;;;;;;26.33;25.00;;;;;1.69;60.96;102724.41;4426931;32;8953;-75
2020/12/22 12:40:03;;;;;;;;;29.67;28.33;;;;;1.64;60.83;102735.97;4426605;32;8897;-76
2020/12/22 12:42:30;;;;;;;;;30.33;29.33;;;;;1.79;60.20;102734.81;4431286;32;8887;-75
2020/12/22 12:45:26;;;;;;;;;42.00;42.00;;;;;1.51;60.28;102735.22;4424759;32;8896;-76
2020/12/22 12:48:07;;;;;;;;;34.00;30.67;;;;;1.78;59.73;102733.16;4432207;32;8894;-76
2020/12/22 12:51:04;;;;;;;;;30.00;28.00;;;;;1.39;59.97;102737.84;4433204;32;9587;-76
2020/12/22 12:54:01;;;;;;;;;38.67;36.33;;;;;1.24;60.25;102734.56;4432966;32;8944;-75
2020/12/22 12:56:56;;;;;;;;;33.67;33.00;;;;;1.23;59.87;102730.19;4431963;32;8970;-75
2020/12/22 12:59:41;;;;;;;;;35.33;32.33;;;;;0.87;60.64;102730.78;4428420;32;8929;-74
2020/12/22 13:02:09;;;;;;;;;32.00;31.33;;;;;0.99;60.66;102735.31;4428646;32;8914;-75
2020/12/22 13:05:05;;;;;;;;;33.67;31.67;;;;;1.24;59.97;102738.13;4432739;32;8888;-75
2020/12/22 13:07:33;;;;;;;;;42.00;36.00;;;;;1.38;59.61;102742.44;4433685;32;8986;-76
2020/12/22 13:10:04;;;;;;;;;38.67;35.67;;;;;1.56;59.47;102735.41;4432418;32;9608;-74